createdAt,value
2018-06-10T00:14:08.808Z,4.80
2018-06-10T00:17:05.139Z,18.60
2018-06-10T00:20:07.206Z,17.67
2018-06-10T00:23:02.849Z,18.40
2018-06-10T00:25:41.653Z,18.97
2018-06-10T00:28:30.607Z,18.10
2018-06-10T00:31:13.328Z,18.90
2018-06-10T00:33:55.752Z,19.33
2018-06-10T00:36:38.234Z,18.47
2018-06-10T00:39:46.942Z,19.00
2018-06-10T00:42:25.577Z,18.97
2018-06-10T00:45:04.091Z,19.40
2018-06-10T00:47:57.433Z,18.93
2018-06-10T00:50:40.098Z,20.20
2018-06-10T00:53:30.456Z,18.50
2018-06-10T00:56:35.703Z,19.57
2018-06-10T00:59:29.130Z,18.63
2018-06-10T01:02:08.096Z,20.80
2018-06-10T01:04:59.340Z,19.70
2018-06-10T01:14:30.896Z,22.50
2018-06-10T01:20:48.760Z,21.27
2018-06-10T01:25:39.181Z,20.33
2018-06-10T12:39:30.162Z,4.93
2018-06-10T12:42:00.280Z,6.80
2018-06-10T12:44:31.450Z,6.67
2018-06-10T12:47:01.483Z,8.73
2018-06-10T12:49:39.071Z,8.40
2018-06-10T12:52:11.762Z,9.43
2018-06-10T12:54:41.640Z,7.80
2018-06-10T12:57:20.125Z,6.30
2018-06-10T12:59:53.572Z,6.77
2018-06-10T13:02:24.008Z,6.40
2018-06-10T13:04:54.570Z,7.47
2018-06-10T13:07:24.647Z,7.37
2018-06-10T13:09:54.563Z,7.40
2018-06-10T13:12:26.120Z,8.00
2018-06-10T13:14:57.563Z,7.53
2018-06-10T13:17:31.286Z,8.30
2018-06-10T13:20:00.672Z,8.03
2018-06-10T13:22:31.191Z,8.13
2018-06-10T13:25:00.696Z,10.00
2018-06-10T13:27:30.552Z,8.90
2018-06-10T13:30:02.565Z,8.53
2018-06-10T13:32:31.245Z,8.40
2018-06-10T13:35:01.725Z,8.70
2018-06-10T13:37:37.089Z,8.17
2018-06-10T13:40:07.863Z,9.30
2018-06-10T13:42:37.566Z,8.73
2018-06-10T13:45:09.279Z,9.30
2018-06-10T13:47:39.090Z,9.33
2018-06-10T13:50:09.944Z,8.90
2018-06-10T13:52:42.322Z,8.10
2018-06-10T13:55:14.003Z,9.03
2018-06-10T13:57:46.981Z,8.20
2018-06-10T14:00:18.547Z,9.40
2018-06-10T14:02:49.176Z,8.90
2018-06-10T14:05:20.516Z,9.13
2018-06-10T14:07:50.554Z,9.50
2018-06-10T14:10:20.490Z,8.90
2018-06-10T14:12:51.168Z,9.00
2018-06-10T14:15:25.743Z,9.93
2018-06-10T14:17:55.206Z,9.43
2018-06-10T14:20:26.219Z,9.67
2018-06-10T14:22:56.797Z,9.37
2018-06-10T14:25:29.136Z,9.00
2018-06-10T14:28:00.800Z,9.47
2018-06-10T14:30:33.135Z,10.00
2018-06-10T14:33:03.467Z,9.80
2018-06-10T14:35:34.654Z,10.57
2018-06-10T14:38:04.928Z,9.90
2018-06-10T14:40:34.966Z,10.17
2018-06-10T14:43:09.496Z,9.13
2018-06-10T14:45:39.531Z,9.43
2018-06-10T14:48:11.411Z,9.03
2018-06-10T14:50:43.015Z,9.40
2018-06-10T14:53:12.628Z,8.43
2018-06-10T14:55:44.473Z,6.40
2018-06-10T14:58:15.119Z,6.63
2018-06-10T15:00:48.486Z,6.87
2018-06-10T15:03:17.911Z,6.20
2018-06-10T15:05:49.349Z,6.73
2018-06-10T15:08:21.436Z,7.80
2018-06-10T15:10:50.627Z,8.63
2018-06-10T15:13:22.061Z,8.63
2018-06-10T15:15:52.096Z,9.50
2018-06-10T15:18:23.623Z,9.13
2018-06-10T15:20:56.841Z,10.40
2018-06-10T15:23:27.663Z,10.80
2018-06-10T15:25:58.807Z,11.30
2018-06-10T15:28:29.286Z,10.47
2018-06-10T15:30:59.291Z,10.73
2018-06-10T15:33:32.761Z,9.70
2018-06-10T15:36:04.719Z,9.83
2018-06-10T15:38:35.454Z,9.07
2018-06-10T15:41:09.804Z,10.10
2018-06-10T15:43:39.065Z,10.87
2018-06-10T15:46:11.707Z,10.70
2018-06-10T15:48:43.508Z,10.60
2018-06-10T15:51:22.913Z,10.27
2018-06-10T15:53:55.505Z,10.70
2018-06-10T15:59:57.907Z,10.60
2018-06-10T16:02:33.390Z,10.53
2018-06-10T16:07:57.545Z,10.87
2018-06-10T16:10:56.038Z,11.33
2018-06-10T16:13:43.046Z,10.90
2018-06-10T16:16:26.900Z,10.50
2018-06-10T16:19:19.635Z,12.13
2018-06-10T16:22:33.988Z,11.20
2018-06-10T16:32:27.264Z,12.17
2018-06-10T16:48:32.731Z,13.20
2018-06-10T16:57:38.199Z,13.23
2018-06-10T17:03:27.899Z,12.70
2018-06-10T17:06:13.696Z,13.30
2018-06-10T17:09:34.644Z,13.80
2018-06-10T17:16:38.366Z,13.83
2018-06-10T17:19:48.896Z,14.17
2018-06-10T17:29:42.109Z,14.17
2018-06-10T17:32:14.941Z,15.83
2018-06-10T17:38:21.480Z,16.30
2018-06-10T17:40:58.773Z,16.90
2018-06-10T17:43:33.082Z,17.07
2018-06-10T17:46:13.594Z,18.07
2018-06-10T17:48:47.245Z,19.47
2018-06-10T17:51:24.535Z,21.53
2018-06-10T17:54:03.428Z,16.67
2018-06-10T17:56:40.432Z,16.00
2018-06-10T17:59:14.372Z,16.40
2018-06-10T18:01:50.918Z,16.77
2018-06-10T18:04:25.129Z,18.97
2018-06-10T18:07:09.991Z,21.33
2018-06-10T18:12:39.112Z,19.20
2018-06-10T18:17:57.771Z,14.60
2018-06-10T18:20:33.023Z,15.80
2018-06-10T18:23:07.532Z,17.63
2018-06-10T18:25:40.321Z,16.60
2018-06-10T18:28:16.102Z,15.20
2018-06-10T18:30:48.969Z,16.40
2018-06-10T18:33:21.611Z,14.60
2018-06-10T18:35:57.593Z,13.57
2018-06-10T18:38:30.676Z,14.87
2018-06-10T18:41:06.326Z,13.37
2018-06-10T18:43:38.689Z,13.87
2018-06-10T18:46:20.487Z,12.80
2018-06-10T18:51:01.875Z,12.20
2018-06-10T18:53:41.215Z,11.73
2018-06-10T18:56:18.502Z,13.23
2018-06-10T18:58:48.380Z,12.70
2018-06-10T19:01:17.505Z,13.83
2018-06-10T19:03:50.160Z,11.90
2018-06-10T19:06:24.798Z,13.07
2018-06-10T19:08:56.611Z,13.37
2018-06-10T19:11:27.610Z,12.90
2018-06-10T19:17:08.086Z,13.13
2018-06-10T19:19:38.621Z,12.93
2018-06-10T19:22:10.464Z,12.90
2018-06-10T19:24:42.744Z,13.23
2018-06-10T19:27:13.789Z,12.07
2018-06-10T19:30:20.756Z,13.20
2018-06-10T19:32:54.891Z,13.07
2018-06-10T19:35:25.125Z,14.17
2018-06-10T19:37:54.550Z,12.90
2018-06-10T19:40:24.222Z,13.77
2018-06-10T19:42:57.670Z,13.60
2018-06-10T19:45:28.744Z,13.60
2018-06-10T19:48:04.689Z,13.30
2018-06-10T19:50:42.197Z,13.43
2018-06-10T19:53:16.295Z,12.77
2018-06-10T19:59:31.610Z,14.07
2018-06-10T20:02:06.435Z,14.00
2018-06-10T20:04:38.464Z,15.43
2018-06-10T20:07:08.453Z,14.00
2018-06-10T20:09:38.501Z,14.10
2018-06-10T20:12:12.216Z,14.03
2018-06-10T20:14:44.071Z,14.20
2018-06-10T20:17:19.214Z,15.30
2018-06-10T20:19:50.214Z,14.87
2018-06-10T20:22:20.487Z,14.00
2018-06-10T20:24:51.139Z,12.90
2018-06-10T20:27:23.080Z,14.23
2018-06-10T20:29:58.282Z,13.20
2018-06-10T20:32:29.722Z,13.43
2018-06-10T20:35:02.238Z,12.77
2018-06-10T20:37:31.752Z,13.10
2018-06-10T20:40:02.074Z,12.10
2018-06-10T20:42:40.610Z,12.67
2018-06-10T20:45:15.187Z,12.13
2018-06-10T20:47:56.407Z,12.20
2018-06-10T20:50:27.405Z,12.10
2018-06-10T20:53:08.068Z,13.33
2018-06-10T20:55:43.452Z,13.03
2018-06-10T20:58:16.707Z,11.60
2018-06-10T21:05:10.493Z,12.70
2018-06-10T21:07:39.723Z,12.70
2018-06-10T21:11:25.312Z,11.73
2018-06-10T21:14:58.402Z,12.70
2018-06-10T21:23:38.224Z,11.03
2018-06-10T21:30:06.185Z,12.23
2018-06-10T21:41:46.707Z,12.77
